createdAt,value
2022-09-17T00:01:06.720Z,2.40
2022-09-17T00:03:34.364Z,2.00
2022-09-17T00:06:09.287Z,1.83
2022-09-17T00:08:37.588Z,2.45
2022-09-17T00:11:15.808Z,2.10
2022-09-17T00:13:43.801Z,2.13
2022-09-17T00:16:11.223Z,1.83
2022-09-17T00:18:41.529Z,2.15
2022-09-17T00:21:18.885Z,2.20
2022-09-17T00:23:45.685Z,2.38
2022-09-17T00:26:12.781Z,2.60
2022-09-17T00:28:39.596Z,2.60
2022-09-17T00:31:09.949Z,2.35
2022-09-17T00:33:36.958Z,2.05
2022-09-17T00:36:05.147Z,2.17
2022-09-17T00:38:32.423Z,2.35
2022-09-17T00:40:59.120Z,1.88
2022-09-17T00:43:48.792Z,1.90
2022-09-17T00:46:37.731Z,1.70
2022-09-17T00:49:16.669Z,1.73
2022-09-17T00:52:00.657Z,1.80
2022-09-17T00:54:28.229Z,2.05
2022-09-17T00:56:55.240Z,1.83
2022-09-17T00:59:22.677Z,1.83
2022-09-17T01:01:49.768Z,2.03
2022-09-17T01:04:21.646Z,2.00
2022-09-17T01:06:58.033Z,2.25
2022-09-17T01:09:48.742Z,2.17
2022-09-17T01:12:32.499Z,2.45
2022-09-17T01:15:33.041Z,2.35
2022-09-17T01:18:22.538Z,2.38
2022-09-17T01:21:10.521Z,2.60
2022-09-17T01:23:55.489Z,2.67
2022-09-17T01:26:50.090Z,2.75
2022-09-17T01:29:52.533Z,2.45
2022-09-17T01:32:38.860Z,2.97
2022-09-17T01:35:19.204Z,2.40
2022-09-17T01:38:14.700Z,2.40
2022-09-17T01:40:55.516Z,2.03
2022-09-17T01:43:34.448Z,2.20
2022-09-17T01:46:11.485Z,2.40
2022-09-17T01:48:44.904Z,2.30
2022-09-17T01:51:17.007Z,2.10
2022-09-17T01:53:51.395Z,1.90
2022-09-17T01:56:26.089Z,1.75
2022-09-17T01:59:26.013Z,1.58
2022-09-17T02:01:59.017Z,1.50
2022-09-17T02:04:34.356Z,1.40
2022-09-17T02:07:08.157Z,1.75
2022-09-17T02:09:43.141Z,1.50
2022-09-17T02:12:18.499Z,1.80
2022-09-17T02:14:52.419Z,2.00
2022-09-17T02:17:41.932Z,2.55
2022-09-17T02:20:09.837Z,2.03
2022-09-17T02:22:51.727Z,2.40
2022-09-17T02:25:31.329Z,3.47
2022-09-17T02:28:23.405Z,2.28
2022-09-17T02:30:50.542Z,2.20
2022-09-17T02:33:18.533Z,2.50
2022-09-17T02:35:46.561Z,2.05
2022-09-17T02:38:13.531Z,1.90
2022-09-17T02:40:50.045Z,1.90
2022-09-17T02:43:25.501Z,1.80
2022-09-17T02:46:14.947Z,2.10
2022-09-17T02:49:09.309Z,1.65
2022-09-17T02:51:52.071Z,1.80
2022-09-17T02:57:15.345Z,2.08
2022-09-17T02:59:58.832Z,2.00
2022-09-17T03:02:31.962Z,2.22
2022-09-17T03:04:59.909Z,2.17
2022-09-17T03:07:29.071Z,2.13
2022-09-17T03:09:55.788Z,2.03
2022-09-17T03:12:24.442Z,2.30
2022-09-17T03:14:51.152Z,2.10
2022-09-17T03:17:17.925Z,2.00
2022-09-17T03:19:44.707Z,1.83
2022-09-17T03:22:11.684Z,1.80
2022-09-17T03:24:38.503Z,1.90
2022-09-17T03:27:05.538Z,1.77
2022-09-17T03:29:32.364Z,2.03
2022-09-17T03:31:59.300Z,2.10
2022-09-17T03:34:25.998Z,2.00
2022-09-17T03:36:52.660Z,1.90
2022-09-17T03:39:19.288Z,2.10
2022-09-17T03:41:45.919Z,1.98
2022-09-17T03:44:12.578Z,1.90
2022-09-17T03:46:39.285Z,2.45
2022-09-17T03:49:05.999Z,2.20
2022-09-17T03:51:32.783Z,1.80
2022-09-17T03:53:59.462Z,1.85
2022-09-17T03:56:26.969Z,1.90
2022-09-17T03:58:58.218Z,1.75
2022-09-17T04:01:25.002Z,1.63
2022-09-17T04:03:51.708Z,1.60
2022-09-17T04:06:18.397Z,2.30
2022-09-17T04:08:45.086Z,1.60
2022-09-17T04:11:11.752Z,1.90
2022-09-17T04:13:38.409Z,1.85
2022-09-17T04:16:05.248Z,1.90
2022-09-17T04:18:31.996Z,2.25
2022-09-17T04:20:58.658Z,1.70
2022-09-17T04:23:25.345Z,1.95
2022-09-17T04:25:52.657Z,2.17
2022-09-17T04:28:19.310Z,2.03
2022-09-17T04:30:47.589Z,2.35
2022-09-17T04:33:14.265Z,2.65
2022-09-17T04:35:41.307Z,2.45
2022-09-17T04:38:09.348Z,2.50
2022-09-17T04:40:36.362Z,2.53
2022-09-17T04:43:04.076Z,2.35
2022-09-17T04:45:33.318Z,2.40
2022-09-17T04:48:00.125Z,2.38
2022-09-17T04:50:26.792Z,2.90
2022-09-17T04:52:53.508Z,2.30
2022-09-17T04:55:20.208Z,2.30
2022-09-17T04:57:52.222Z,2.70
2022-09-17T05:00:20.618Z,2.65
2022-09-17T05:02:49.709Z,2.70
2022-09-17T05:05:17.805Z,2.90
2022-09-17T05:07:45.199Z,2.70
2022-09-17T05:10:13.848Z,3.00
2022-09-17T05:12:40.536Z,2.90
2022-09-17T05:15:07.759Z,3.10
2022-09-17T05:17:34.400Z,3.00
2022-09-17T05:20:01.888Z,2.90
2022-09-17T05:22:28.576Z,3.45
2022-09-17T05:24:55.382Z,3.30
2022-09-17T05:27:22.130Z,3.50
2022-09-17T05:29:49.983Z,3.60
2022-09-17T05:32:16.794Z,3.45
2022-09-17T05:34:43.526Z,3.22
2022-09-17T05:37:11.520Z,3.45
2022-09-17T05:39:38.185Z,3.40
2022-09-17T05:42:05.111Z,3.13
2022-09-17T05:44:31.803Z,3.00
2022-09-17T05:46:58.829Z,3.10
2022-09-17T05:49:25.577Z,2.90
2022-09-17T05:51:52.566Z,3.00
2022-09-17T05:54:19.494Z,2.85
2022-09-17T05:56:46.436Z,3.30
2022-09-17T05:59:13.183Z,2.53
2022-09-17T06:01:42.490Z,2.50
2022-09-17T06:04:11.409Z,2.47
2022-09-17T06:06:38.966Z,1.80
2022-09-17T06:09:06.401Z,2.28
2022-09-17T06:11:35.906Z,2.08
2022-09-17T06:14:04.010Z,2.05
2022-09-17T06:16:32.740Z,2.67
2022-09-17T06:18:59.594Z,2.70
2022-09-17T06:21:26.468Z,2.80
2022-09-17T06:23:53.221Z,2.70
2022-09-17T06:26:20.353Z,2.35
2022-09-17T06:28:47.008Z,2.28
2022-09-17T06:31:13.955Z,2.20
2022-09-17T06:33:41.317Z,1.90
2022-09-17T06:36:13.645Z,2.58
2022-09-17T06:38:41.580Z,2.38
2022-09-17T06:41:08.745Z,2.50
2022-09-17T06:43:35.429Z,2.33
2022-09-17T06:46:06.016Z,2.00
2022-09-17T06:48:35.757Z,0.85
2022-09-17T06:51:04.179Z,0.60
2022-09-17T06:53:31.599Z,0.60
2022-09-17T06:56:05.260Z,0.80
2022-09-17T06:58:33.784Z,0.88
2022-09-17T07:01:04.832Z,1.00
2022-09-17T07:03:32.555Z,0.80
2022-09-17T07:05:59.216Z,1.10
2022-09-17T07:08:26.333Z,1.00
2022-09-17T07:10:57.470Z,0.80
2022-09-17T07:13:25.154Z,1.00
2022-09-17T07:15:55.886Z,0.80
2022-09-17T07:18:23.290Z,1.00
2022-09-17T07:20:57.956Z,0.60
2022-09-17T07:23:26.766Z,0.70
2022-09-17T07:25:55.089Z,0.60
2022-09-17T07:28:22.563Z,0.68
2022-09-17T07:30:50.874Z,0.93
2022-09-17T07:33:23.136Z,0.90
2022-09-17T07:35:54.782Z,0.93
2022-09-17T07:38:22.747Z,1.00
2022-09-17T07:41:00.549Z,1.15
2022-09-17T07:43:28.996Z,1.30
2022-09-17T07:45:57.888Z,1.50
2022-09-17T07:48:25.705Z,1.80
2022-09-17T07:50:52.751Z,1.30
2022-09-17T07:53:19.515Z,1.50
2022-09-17T07:55:57.304Z,1.45
2022-09-17T08:03:08.980Z,1.50
2022-09-17T08:06:12.077Z,1.60
2022-09-17T08:08:42.522Z,1.40
2022-09-17T08:11:32.482Z,1.23
2022-09-17T08:14:05.773Z,1.10
2022-09-17T08:16:32.482Z,1.55
2022-09-17T08:18:59.257Z,1.67
2022-09-17T08:21:26.251Z,1.30
2022-09-17T08:23:53.030Z,1.17
2022-09-17T08:26:23.546Z,1.48
2022-09-17T08:28:54.950Z,1.40
2022-09-17T08:31:26.764Z,1.17
2022-09-17T08:33:53.845Z,1.20
2022-09-17T08:36:22.655Z,0.80
2022-09-17T08:38:53.475Z,1.15
2022-09-17T08:42:02.481Z,1.08
2022-09-17T08:44:41.121Z,1.13
2022-09-17T08:47:37.915Z,1.20
2022-09-17T08:50:15.081Z,1.23
2022-09-17T08:53:11.592Z,0.90
2022-09-17T08:55:43.460Z,1.33
2022-09-17T08:58:47.062Z,1.38
2022-09-17T09:02:21.254Z,1.30
2022-09-17T09:08:30.682Z,1.10
2022-09-17T09:11:00.112Z,0.90
2022-09-17T09:14:03.839Z,0.82
2022-09-17T09:16:34.056Z,0.82
2022-09-17T09:19:19.897Z,0.90
2022-09-17T09:22:27.337Z,0.90
2022-09-17T09:25:24.429Z,0.70
2022-09-17T09:28:04.089Z,0.80
2022-09-17T09:30:59.099Z,1.10
2022-09-17T09:33:48.100Z,0.70
2022-09-17T09:36:21.480Z,1.10
2022-09-17T09:39:12.338Z,1.02
2022-09-17T09:41:54.267Z,1.02
2022-09-17T09:44:23.980Z,0.90
2022-09-17T09:47:19.639Z,1.05
2022-09-17T09:49:53.697Z,1.00
2022-09-17T09:52:48.265Z,1.00
2022-09-17T09:55:37.370Z,0.80
2022-09-17T09:58:31.038Z,0.85
2022-09-17T10:00:58.009Z,0.90
2022-09-17T10:03:32.347Z,1.00
2022-09-17T10:05:59.046Z,1.13
2022-09-17T10:08:27.663Z,0.85
2022-09-17T10:10:55.883Z,0.80
2022-09-17T10:13:22.950Z,0.70
2022-09-17T10:15:49.913Z,0.60
2022-09-17T10:18:24.626Z,0.77
2022-09-17T10:20:59.796Z,0.77
2022-09-17T10:23:29.141Z,0.85
2022-09-17T10:25:56.594Z,0.85
2022-09-17T10:28:51.369Z,0.80
2022-09-17T10:31:18.863Z,0.88
2022-09-17T10:34:18.600Z,0.70
2022-09-17T10:36:46.796Z,0.90
2022-09-17T10:39:37.996Z,1.13
2022-09-17T10:42:13.885Z,0.80
2022-09-17T10:44:55.229Z,1.10
2022-09-17T10:47:36.184Z,0.80
2022-09-17T10:50:16.081Z,0.88
2022-09-17T10:52:49.637Z,1.10
2022-09-17T10:55:33.388Z,0.95
2022-09-17T10:58:07.179Z,0.93
2022-09-17T11:00:33.838Z,1.25
2022-09-17T11:03:28.539Z,0.98
2022-09-17T11:07:18.955Z,0.50
2022-09-17T11:10:04.503Z,0.30
2022-09-17T11:12:47.195Z,0.30
2022-09-17T11:15:27.864Z,0.60
2022-09-17T11:18:26.525Z,0.60
2022-09-17T11:21:05.527Z,0.50
2022-09-17T11:23:38.312Z,0.50
2022-09-17T11:26:13.152Z,0.38
2022-09-17T11:29:05.459Z,0.40
2022-09-17T11:32:25.573Z,0.40
2022-09-17T11:35:36.624Z,0.40
2022-09-17T11:38:27.466Z,0.60
2022-09-17T11:41:21.888Z,0.80
2022-09-17T11:44:20.941Z,0.88
2022-09-17T11:47:08.486Z,0.93
2022-09-17T11:50:01.535Z,1.20
2022-09-17T11:55:33.099Z,0.70
2022-09-17T11:58:04.479Z,1.00
2022-09-17T12:00:36.354Z,1.10
2022-09-17T12:03:50.396Z,1.02
2022-09-17T12:06:25.929Z,0.90
2022-09-17T12:09:03.481Z,0.95
2022-09-17T12:12:02.420Z,1.02
2022-09-17T12:14:58.612Z,0.80
2022-09-17T12:17:31.581Z,1.15
2022-09-17T12:20:08.977Z,1.00
2022-09-17T12:22:41.630Z,1.15
2022-09-17T12:27:53.443Z,1.10
2022-09-17T12:30:25.808Z,1.10
2022-09-17T12:33:01.194Z,0.70
2022-09-17T12:36:03.040Z,0.57
2022-09-17T12:39:03.243Z,0.50
2022-09-17T12:41:48.821Z,0.47
2022-09-17T12:44:35.417Z,0.30
2022-09-17T12:47:32.195Z,0.30
2022-09-17T12:50:17.411Z,0.93
2022-09-17T12:53:08.400Z,0.60
2022-09-17T12:55:56.556Z,0.52
2022-09-17T12:59:09.028Z,0.60
2022-09-17T13:02:00.356Z,0.70
2022-09-17T13:05:00.588Z,0.95
2022-09-17T13:07:37.165Z,1.33
2022-09-17T13:10:25.348Z,1.05
2022-09-17T13:13:10.180Z,1.20
2022-09-17T13:15:46.439Z,1.13
2022-09-17T13:18:27.688Z,1.95
2022-09-17T13:21:06.321Z,2.40
2022-09-17T13:23:40.929Z,1.23
2022-09-17T13:26:08.997Z,1.52
2022-09-17T13:28:44.605Z,1.48
2022-09-17T13:31:18.978Z,1.15
2022-09-17T13:33:56.003Z,0.90
2022-09-17T13:36:43.284Z,1.00
2022-09-17T13:39:31.980Z,0.70
2022-09-17T13:42:09.405Z,0.70
2022-09-17T13:44:47.376Z,0.88
2022-09-17T13:47:27.403Z,0.70
2022-09-17T13:50:20.942Z,0.90
2022-09-17T13:52:50.464Z,0.93
2022-09-17T13:55:38.737Z,0.80
2022-09-17T13:58:27.975Z,0.70
2022-09-17T14:01:12.442Z,0.57
2022-09-17T14:03:44.429Z,0.50
2022-09-17T14:06:11.375Z,0.80
2022-09-17T14:08:44.242Z,0.60
2022-09-17T14:11:26.869Z,0.60
2022-09-17T14:13:55.136Z,0.95
2022-09-17T14:16:40.587Z,0.70
2022-09-17T14:19:16.895Z,0.60
2022-09-17T14:21:59.554Z,0.50
2022-09-17T14:24:32.905Z,0.50
2022-09-17T14:27:27.928Z,0.55
2022-09-17T14:30:03.159Z,0.68
2022-09-17T14:32:59.456Z,0.50
2022-09-17T14:35:44.032Z,0.60
2022-09-17T14:38:13.686Z,0.40
2022-09-17T14:41:12.104Z,0.60
2022-09-17T14:44:21.909Z,0.52
2022-09-17T14:47:00.716Z,0.85
2022-09-17T14:49:40.985Z,0.70
2022-09-17T14:52:26.680Z,0.47
2022-09-17T14:55:20.082Z,0.60
2022-09-17T14:57:51.700Z,0.50
2022-09-17T15:00:28.217Z,0.50
2022-09-17T15:02:59.723Z,0.50
2022-09-17T15:05:37.928Z,0.87
2022-09-17T15:08:07.454Z,0.70
2022-09-17T15:10:44.846Z,0.80
2022-09-17T15:13:19.463Z,0.60
2022-09-17T15:16:01.644Z,0.68
2022-09-17T15:18:36.590Z,0.73
2022-09-17T15:21:06.719Z,0.50
2022-09-17T15:23:35.870Z,1.40
2022-09-17T15:26:03.356Z,7.88
2022-09-17T15:28:43.709Z,0.70
2022-09-17T15:31:20.049Z,0.88
2022-09-17T15:33:47.475Z,0.90
2022-09-17T15:36:27.345Z,0.57
2022-09-17T15:38:54.615Z,0.70
2022-09-17T15:41:36.652Z,1.80
2022-09-17T15:44:29.109Z,0.60
2022-09-17T15:47:17.275Z,0.70
2022-09-17T15:50:07.041Z,0.60
2022-09-17T15:52:38.096Z,0.60
2022-09-17T15:55:05.747Z,0.60
2022-09-17T15:57:35.901Z,0.63
2022-09-17T16:00:13.090Z,0.57
2022-09-17T16:02:40.374Z,0.68
2022-09-17T16:05:19.327Z,1.35
2022-09-17T16:07:46.459Z,0.90
2022-09-17T16:10:15.355Z,0.88
2022-09-17T16:12:42.799Z,1.00
2022-09-17T16:15:13.546Z,1.00
2022-09-17T16:17:47.780Z,0.80
2022-09-17T16:20:23.690Z,1.70
2022-09-17T16:22:54.937Z,4.13
2022-09-17T16:25:25.742Z,3.33
2022-09-17T16:27:57.560Z,1.10
2022-09-17T16:30:25.023Z,3.83
2022-09-17T16:32:58.037Z,4.18
2022-09-17T16:35:28.321Z,1.23
2022-09-17T16:37:56.508Z,1.20
2022-09-17T16:40:51.813Z,0.80
2022-09-17T16:43:20.295Z,0.95
2022-09-17T16:46:20.069Z,0.70
2022-09-17T16:48:50.774Z,1.10
2022-09-17T16:51:26.308Z,1.90
2022-09-17T16:53:53.903Z,0.95
2022-09-17T16:56:20.808Z,0.70
2022-09-17T16:58:47.701Z,0.90
2022-09-17T17:01:16.178Z,0.93
2022-09-17T17:03:45.492Z,1.20
2022-09-17T17:06:19.622Z,0.80
2022-09-17T17:08:47.115Z,0.70
2022-09-17T17:11:14.593Z,0.60
2022-09-17T17:13:47.760Z,0.70
2022-09-17T17:16:15.171Z,1.30
2022-09-17T17:18:45.217Z,0.80
2022-09-17T17:21:14.274Z,0.63
2022-09-17T17:23:43.754Z,0.82
2022-09-17T17:26:10.528Z,0.70
2022-09-17T17:28:40.667Z,0.70
2022-09-17T17:31:07.602Z,0.63
2022-09-17T17:33:34.694Z,0.70
2022-09-17T17:36:07.491Z,1.00
2022-09-17T17:38:34.557Z,0.90
2022-09-17T17:41:10.869Z,1.17
2022-09-17T17:43:37.976Z,1.17
2022-09-17T17:46:12.175Z,1.20
2022-09-17T17:48:39.098Z,1.00
2022-09-17T17:51:09.739Z,1.00
2022-09-17T17:53:37.022Z,1.20
2022-09-17T17:56:06.551Z,0.85
2022-09-17T17:58:33.362Z,2.40
2022-09-17T18:01:00.904Z,2.40
2022-09-17T18:03:27.748Z,2.03
2022-09-17T18:05:58.495Z,3.50
2022-09-17T18:08:25.942Z,1.00
2022-09-17T18:10:57.856Z,1.10
2022-09-17T18:13:24.789Z,1.10
2022-09-17T18:15:56.564Z,1.45
2022-09-17T18:18:24.604Z,1.30
2022-09-17T18:20:53.835Z,1.30
2022-09-17T18:23:21.157Z,1.55
2022-09-17T18:25:59.399Z,1.05
2022-09-17T18:28:27.728Z,1.20
2022-09-17T18:30:55.200Z,1.25
2022-09-17T18:33:26.743Z,1.00
2022-09-17T18:35:57.207Z,1.10
2022-09-17T18:38:24.319Z,1.10
2022-09-17T18:40:51.863Z,1.13
2022-09-17T18:43:18.997Z,1.25
2022-09-17T18:45:56.073Z,1.38
2022-09-17T18:48:23.989Z,1.20
2022-09-17T18:51:08.686Z,1.10
2022-09-17T18:53:37.565Z,1.13
2022-09-17T18:56:11.296Z,1.13
2022-09-17T18:58:38.014Z,1.10
2022-09-17T19:01:06.145Z,1.30
2022-09-17T19:03:33.280Z,1.10
2022-09-17T19:06:01.192Z,1.45
2022-09-17T19:08:28.228Z,1.00
2022-09-17T19:10:54.953Z,1.10
2022-09-17T19:13:21.692Z,0.82
2022-09-17T19:15:48.458Z,1.20
2022-09-17T19:18:15.245Z,1.20
2022-09-17T19:20:42.471Z,1.20
2022-09-17T19:23:09.241Z,1.10
2022-09-17T19:25:37.287Z,1.10
2022-09-17T19:28:04.748Z,1.08
2022-09-17T19:30:31.759Z,1.35
2022-09-17T19:32:58.895Z,1.35
2022-09-17T19:35:26.309Z,1.77
2022-09-17T19:37:53.215Z,1.27
2022-09-17T19:40:20.352Z,1.30
2022-09-17T19:42:56.501Z,1.20
2022-09-17T19:45:23.957Z,1.20
2022-09-17T19:47:51.377Z,1.40
2022-09-17T19:50:18.841Z,1.67
2022-09-17T19:52:45.606Z,1.60
2022-09-17T19:55:13.036Z,1.50
2022-09-17T19:57:41.281Z,1.48
2022-09-17T20:00:10.560Z,0.80
2022-09-17T20:02:38.105Z,0.98
2022-09-17T20:05:05.287Z,1.10
2022-09-17T20:07:33.314Z,0.90
2022-09-17T20:09:59.954Z,1.10
2022-09-17T20:12:26.622Z,1.13
2022-09-17T20:14:53.382Z,1.00
2022-09-17T20:17:20.088Z,0.80
2022-09-17T20:19:46.861Z,1.02
2022-09-17T20:22:13.612Z,0.93
2022-09-17T20:24:40.720Z,0.95
2022-09-17T20:27:07.493Z,0.93
2022-09-17T20:29:34.342Z,1.17
2022-09-17T20:32:01.077Z,1.20
2022-09-17T20:34:27.729Z,1.25
2022-09-17T20:37:11.868Z,1.23
2022-09-17T20:39:39.600Z,1.05
2022-09-17T20:42:06.425Z,1.05
2022-09-17T20:44:33.127Z,1.30
2022-09-17T20:47:01.267Z,1.40
2022-09-17T20:49:28.368Z,1.63
2022-09-17T20:51:55.019Z,1.70
2022-09-17T20:54:21.741Z,1.70
2022-09-17T20:56:48.520Z,1.65
2022-09-17T20:59:18.449Z,1.60
2022-09-17T21:01:49.741Z,1.77
2022-09-17T21:04:19.575Z,1.80
2022-09-17T21:06:47.521Z,1.60
2022-09-17T21:09:17.878Z,2.00
2022-09-17T21:11:46.298Z,1.60
2022-09-17T21:14:15.233Z,1.50
2022-09-17T21:16:42.127Z,1.60
2022-09-17T21:19:10.993Z,1.30
2022-09-17T21:21:37.712Z,1.40
2022-09-17T21:24:06.657Z,1.60
2022-09-17T21:26:34.387Z,1.33
2022-09-17T21:29:01.727Z,1.42
2022-09-17T21:31:32.683Z,1.50
2022-09-17T21:34:05.950Z,1.30
2022-09-17T21:36:35.298Z,1.42
2022-09-17T21:39:05.123Z,1.50
2022-09-17T21:41:32.094Z,1.27
2022-09-17T21:43:59.479Z,1.50
2022-09-17T21:46:28.491Z,1.63
2022-09-17T21:49:01.971Z,1.40
2022-09-17T21:51:36.422Z,1.50
2022-09-17T21:54:08.738Z,1.20
2022-09-17T21:56:36.224Z,1.33
2022-09-17T21:59:05.804Z,1.20
2022-09-17T22:01:40.016Z,1.10
2022-09-17T22:04:09.038Z,1.10
2022-09-17T22:06:36.490Z,1.40
2022-09-17T22:09:04.835Z,1.20
2022-09-17T22:11:33.557Z,1.10
2022-09-17T22:14:09.153Z,1.63
2022-09-17T22:16:38.476Z,1.33
2022-09-17T22:19:06.195Z,1.02
2022-09-17T22:21:36.025Z,1.23
2022-09-17T22:24:03.916Z,1.33
2022-09-17T22:26:32.333Z,1.25
2022-09-17T22:29:03.907Z,1.25
2022-09-17T22:31:31.226Z,1.15
2022-09-17T22:33:58.172Z,1.15
2022-09-17T22:36:26.453Z,0.85
2022-09-17T22:38:58.444Z,0.65
2022-09-17T22:41:29.169Z,0.80
2022-09-17T22:44:01.433Z,0.80
2022-09-17T22:46:33.941Z,0.80
2022-09-17T22:49:01.636Z,0.50
2022-09-17T22:51:29.900Z,0.50
2022-09-17T22:53:58.147Z,0.40
2022-09-17T22:56:27.127Z,0.65
2022-09-17T22:58:54.087Z,0.38
2022-09-17T23:01:24.505Z,0.30
2022-09-17T23:03:52.416Z,0.30
2022-09-17T23:06:23.708Z,0.50
2022-09-17T23:08:50.596Z,0.75
2022-09-17T23:11:22.408Z,0.60
2022-09-17T23:13:50.071Z,0.80
2022-09-17T23:16:17.982Z,0.60
2022-09-17T23:18:45.100Z,0.60
2022-09-17T23:21:14.686Z,0.70
2022-09-17T23:23:43.315Z,0.80
2022-09-17T23:26:19.747Z,0.65
2022-09-17T23:28:47.068Z,1.10
2022-09-17T23:31:22.537Z,0.93
2022-09-17T23:33:51.616Z,1.15
2022-09-17T23:36:23.607Z,1.73
2022-09-17T23:38:50.438Z,1.17
2022-09-17T23:41:35.533Z,1.30
2022-09-17T23:44:04.690Z,1.27
2022-09-17T23:46:32.984Z,1.40
2022-09-17T23:49:00.511Z,1.20
2022-09-17T23:51:30.619Z,1.38
2022-09-17T23:53:58.391Z,1.30
2022-09-17T23:56:26.767Z,1.45
2022-09-17T23:58:54.922Z,1.40
